KHOT/HOT METAR and TAF weather

Enter ICAO airport designator
Station Type Date Time Source
KHOT METAR 2019/11/21 03:53 UTC NOAA

KHOT 210353Z AUTO 12005KT 10SM BKN050 OVC065 17/07 A3009 RMK AO2 SLP185 T01720067


Station Type Date Time Source
KHOT Decoded METAR 2019/11/21 03:53 UTC NOAA

HOT SPRINGS MEMORIAL FIELD, AR, United States (KHOT) 34-29N 093-06W 162M
Nov 20, 2019 - 10:53 PM EST / 2019.11.21 0353 UTC
Wind: from the ESE (120 degrees) at 6 MPH (5 KT):0
Visibility: 10 mile(s):0
Sky conditions: overcast
Temperature: 63.0 F (17.2 C)
Dew Point: 44.1 F (6.7 C)
Relative Humidity: 50%
Pressure (altimeter): 30.09 in. Hg (1018 hPa)
ob: KHOT 210353Z AUTO 12005KT 10SM BKN050 OVC065 17/07 A3009 RMK AO2 SLP185 T01720067
cycle: 4

Station Type Date Time Source
KHOT TAF 2019/11/20 18:22 UTC NOAA

TAF KHOT 201720Z 2018/2118 11008KT P6SM SCT120 BKN250
FM210900 17010KT P6SM VCSH OVC080
FM211200 18008KT 6SM -RA SCT025 OVC040

Example: see airport list